Time;durP1;ratioP1;P1;durP2;ratioP2;P2;SDS_P1;SDS_P2;PMS_P1;PMS_P2;Temp;Humidity;BMP_temperature;BMP_pressure;BME280_temperature;BME280_humidity;BME280_pressure;Samples;Min_cycle;Max_cycle;Signal;HPM_P1;HPM_P2
2022/12/27 00:00:48;;;;;;;2.50;1.20;;;;;;;5.86;100.00;96851.88;5034086;28;20049;-79
2022/12/27 00:03:15;;;;;;;1.27;0.82;;;;;;;5.69;100.00;96856.78;5034761;28;20045;-79
2022/12/27 00:05:42;;;;;;;0.77;0.50;;;;;;;5.65;100.00;96861.13;5037901;28;20048;-81
2022/12/27 00:08:09;;;;;;;1.95;0.90;;;;;;;5.67;100.00;96870.56;5037534;28;20049;-80
2022/12/27 00:10:38;;;;;;;0.70;0.70;;;;;;;5.60;100.00;96886.28;5040808;28;20101;-80
2022/12/27 00:13:04;;;;;;;1.45;0.85;;;;;;;5.62;100.00;96881.38;5036668;28;20049;-79
2022/12/27 00:15:33;;;;;;;2.45;0.90;;;;;;;5.61;100.00;96887.06;5036967;28;20041;-81
2022/12/27 00:17:59;;;;;;;0.85;0.70;;;;;;;5.58;100.00;96893.00;5017263;28;20420;-80
2022/12/27 00:20:26;;;;;;;1.85;1.13;;;;;;;5.55;100.00;96890.88;5035855;28;20042;-81
2022/12/27 00:22:53;;;;;;;0.60;0.60;;;;;;;5.50;100.00;96887.09;5039131;28;20056;-80
2022/12/27 00:25:19;;;;;;;2.85;0.80;;;;;;;5.44;100.00;96887.38;5040265;28;20049;-81
2022/12/27 00:27:47;;;;;;;2.22;1.25;;;;;;;5.34;100.00;96898.19;5040826;28;20053;-81
2022/12/27 00:30:14;;;;;;;1.90;0.70;;;;;;;5.34;100.00;96900.88;5039931;28;20045;-81
2022/12/27 00:32:40;;;;;;;2.05;1.02;;;;;;;5.23;100.00;96911.69;5023200;28;20049;-81
2022/12/27 00:35:07;;;;;;;1.80;0.77;;;;;;;5.16;100.00;96907.63;5039303;28;20404;-81
2022/12/27 00:37:34;;;;;;;1.83;1.05;;;;;;;5.18;100.00;96918.97;5043319;28;20045;-81
2022/12/27 00:40:01;;;;;;;2.22;0.90;;;;;;;5.13;100.00;96921.66;5040682;28;20042;-81
2022/12/27 00:42:27;;;;;;;2.25;0.85;;;;;;;5.11;100.00;96932.72;5043352;28;20046;-81
2022/12/27 00:44:55;;;;;;;1.20;0.75;;;;;;;5.12;100.00;96933.56;5040821;28;20049;-81
2022/12/27 00:47:22;;;;;;;3.42;0.95;;;;;;;5.05;100.00;96933.78;5041165;28;20075;-81
2022/12/27 00:49:48;;;;;;;4.60;1.00;;;;;;;5.05;100.00;96933.00;5039622;28;20049;-81
2022/12/27 00:52:15;;;;;;;1.58;0.60;;;;;;;5.01;100.00;96931.91;5040740;28;20049;-80
2022/12/27 00:54:41;;;;;;;1.92;1.00;;;;;;;5.00;100.00;96932.97;5042133;28;20045;-81
2022/12/27 00:57:08;;;;;;;2.00;0.70;;;;;;;4.95;100.00;96934.59;5039259;28;20041;-80
2022/12/27 00:59:34;;;;;;;2.55;0.80;;;;;;;4.98;100.00;96934.06;5037783;28;20049;-80
2022/12/27 01:02:02;;;;;;;3.00;0.82;;;;;;;4.93;100.00;96936.75;5038079;28;20056;-79
2022/12/27 01:04:29;;;;;;;1.33;0.75;;;;;;;4.89;100.00;96932.16;5036100;28;20045;-79
2022/12/27 01:06:55;;;;;;;2.28;0.70;;;;;;;4.75;100.00;96950.75;5033606;28;20137;-78
2022/12/27 01:09:22;;;;;;;3.10;1.02;;;;;;;4.78;100.00;96954.81;5033193;28;20049;-79
2022/12/27 01:11:48;;;;;;;3.05;0.80;;;;;;;4.72;100.00;96951.28;5035271;28;20049;-79
2022/12/27 01:14:14;;;;;;;1.90;1.20;;;;;;;4.69;100.00;96941.00;5033405;28;20049;-79
2022/12/27 01:16:41;;;;;;;1.45;0.90;;;;;;;4.66;100.00;96955.84;5032363;28;20060;-79
2022/12/27 01:19:09;;;;;;;2.72;0.65;;;;;;;4.60;100.00;96966.91;5031980;28;20056;-79
2022/12/27 01:21:36;;;;;;;1.90;0.90;;;;;;;4.63;100.00;96967.16;5033047;28;20053;-79
2022/12/27 01:24:05;;;;;;;1.48;0.70;;;;;;;4.61;100.00;96960.44;5033727;28;20037;-79
2022/12/27 01:26:31;;;;;;;1.50;0.80;;;;;;;4.57;100.00;96967.41;5042318;28;20037;-79
2022/12/27 01:28:58;;;;;;;1.92;0.77;;;;;;;4.62;98.99;96973.63;5033428;28;20049;-80
2022/12/27 01:31:27;;;;;;;2.72;0.90;;;;;;;4.57;98.91;96986.28;5031403;28;20670;-79
2022/12/27 01:33:57;;;;;;;1.42;0.70;;;;;;;4.53;98.61;96990.59;5025615;28;20053;-79
2022/12/27 01:36:26;;;;;;;1.98;0.88;;;;;;;4.53;98.26;96990.59;5032461;28;20038;-78
2022/12/27 01:38:55;;;;;;;1.80;0.77;;;;;;;4.42;97.04;96995.94;5033236;28;20044;-79
2022/12/27 01:44:49;;;;;;;4.13;1.02;;;;;;;4.23;97.68;97010.97;5028081;28;20064;-78
2022/12/27 01:47:24;;;;;;;1.58;0.80;;;;;;;4.29;95.68;97001.00;5042829;28;20042;-79
2022/12/27 01:49:58;;;;;;;1.20;0.80;;;;;;;4.31;94.74;97015.84;5034731;28;20041;-78
2022/12/27 01:52:29;;;;;;;1.63;0.73;;;;;;;4.28;94.87;97029.84;5042397;28;20038;-78
2022/12/27 01:55:02;;;;;;;1.13;0.80;;;;;;;4.30;94.71;97030.41;5037978;28;20033;-79
2022/12/27 01:57:29;;;;;;;1.15;0.77;;;;;;;4.23;95.60;97034.38;5044543;28;20037;-79
2022/12/27 01:59:55;;;;;;;3.33;1.00;;;;;;;4.24;95.60;97042.22;5036894;28;20076;-79
2022/12/27 02:02:22;;;;;;;2.38;0.75;;;;;;;4.32;95.35;97047.13;5038164;28;20049;-79
2022/12/27 02:04:49;;;;;;;1.98;0.80;;;;;;;4.34;95.95;97047.69;5046917;28;20050;-79
2022/12/27 02:07:15;;;;;;;4.65;1.00;;;;;;;4.39;96.24;97058.50;5047758;28;20065;-79
2022/12/27 02:09:50;;;;;;;2.00;0.98;;;;;;;4.38;96.53;97064.94;5044091;28;20386;-78
2022/12/27 02:12:19;;;;;;;3.47;0.75;;;;;;;4.33;96.33;97059.53;5046629;28;20048;-79
2022/12/27 02:14:48;;;;;;;1.38;0.77;;;;;;;4.33;97.24;97062.25;5047556;28;20045;-79
2022/12/27 02:17:17;;;;;;;1.38;0.80;;;;;;;4.33;97.13;97066.78;5039568;28;20071;-78
2022/12/27 02:19:54;;;;;;;2.05;0.85;;;;;;;4.40;97.19;97068.22;5042349;28;20104;-78
2022/12/27 02:26:00;;;;;;;2.13;0.98;;;;;;;4.40;97.13;97076.28;5041688;28;20048;-78
2022/12/27 02:28:41;;;;;;;1.45;1.00;;;;;;;4.44;96.49;97074.72;5036683;28;20049;-79
2022/12/27 02:31:13;;;;;;;1.80;0.80;;;;;;;4.43;96.17;97078.44;5027493;28;20037;-78
2022/12/27 02:33:46;;;;;;;1.67;0.80;;;;;;;4.49;96.05;97073.09;5035367;28;20072;-77
2022/12/27 02:36:18;;;;;;;1.08;0.70;;;;;;;4.45;96.35;97076.31;5031414;28;20767;-78
2022/12/27 02:38:49;;;;;;;4.15;1.00;;;;;;;4.42;96.97;97071.44;5032008;28;20050;-79
2022/12/27 02:55:31;;;;;;;2.35;0.98;;;;;;;4.16;96.43;97083.94;5031110;28;20048;-79
2022/12/27 02:58:20;;;;;;;2.30;0.98;;;;;;;4.14;96.71;97074.50;5036863;28;20053;-79
2022/12/27 03:03:55;;;;;;;5.55;1.15;;;;;;;4.19;96.72;97082.63;5035525;28;20517;-77
2022/12/27 03:06:41;;;;;;;1.80;0.95;;;;;;;4.26;95.92;97085.09;5035057;28;20046;-78
2022/12/27 03:16:01;;;;;;;2.97;1.25;;;;;;;4.35;93.77;97097.84;5030351;28;20496;-78
2022/12/27 03:18:41;;;;;;;4.65;1.50;;;;;;;4.38;94.07;97102.69;5022057;28;20045;-78
2022/12/27 03:26:46;;;;;;;3.40;1.05;;;;;;;4.48;90.61;97117.31;4998987;28;20171;-77
2022/12/27 03:34:55;;;;;;;1.63;1.08;;;;;;;4.26;91.09;97128.22;5003826;28;20040;-78
2022/12/27 03:40:18;;;;;;;4.03;1.40;;;;;;;4.03;91.60;97148.28;5030638;28;20044;-79
2022/12/27 03:48:51;;;;;;;2.17;1.08;;;;;;;3.87;92.26;97187.75;5033451;28;20048;-77
2022/12/27 03:51:20;;;;;;;2.15;1.20;;;;;;;3.84;91.97;97185.53;5033547;28;20042;-77
2022/12/27 03:53:49;;;;;;;4.15;1.60;;;;;;;3.83;92.05;97198.19;5033666;28;20052;-78
2022/12/27 03:56:17;;;;;;;2.45;1.27;;;;;;;3.80;92.36;97209.47;5032332;28;20069;-78
2022/12/27 03:58:43;;;;;;;1.98;1.30;;;;;;;3.83;92.35;97224.34;5033665;28;20064;-79
2022/12/27 04:01:10;;;;;;;2.80;1.48;;;;;;;3.87;92.46;97231.66;5032765;28;20053;-78
2022/12/27 04:03:36;;;;;;;1.98;1.20;;;;;;;3.97;93.07;97247.13;5033137;28;20046;-77
2022/12/27 04:06:04;;;;;;;2.75;1.40;;;;;;;4.02;92.40;97249.03;5032351;28;20041;-78
2022/12/27 04:35:57;;;;;;;1.40;1.00;;;;;;;2.92;88.39;97281.31;5024993;28;20056;-78
2022/12/27 04:38:25;;;;;;;1.77;1.08;;;;;;;2.88;88.55;97282.88;5031988;28;20072;-78
2022/12/27 04:54:59;;;;;;;2.40;1.13;;;;;;;2.45;91.48;97305.03;5032274;28;20056;-78
2022/12/27 04:57:26;;;;;;;2.40;1.10;;;;;;;2.45;91.25;97303.16;5030940;28;20045;-78
2022/12/27 05:02:37;;;;;;;2.03;1.13;;;;;;;2.30;91.04;97319.84;5032044;28;20107;-78
2022/12/27 05:05:04;;;;;;;3.38;1.27;;;;;;;2.22;91.46;97320.22;5031871;28;20046;-77
2022/12/27 05:15:44;;;;;;;1.63;1.00;;;;;;;1.97;93.57;97338.53;5031727;28;20156;-78
2022/12/27 05:18:10;;;;;;;2.08;1.20;;;;;;;2.04;93.51;97331.19;5031359;28;20485;-79
2022/12/27 05:20:37;;;;;;;3.80;1.10;;;;;;;1.96;93.25;97331.53;5031756;28;20045;-78
2022/12/27 05:25:49;;;;;;;3.17;1.00;;;;;;;1.95;93.13;97329.91;5031667;28;20060;-77
2022/12/27 05:28:15;;;;;;;4.78;1.40;;;;;;;1.85;93.34;97337.78;5031253;28;20041;-78
2022/12/27 05:30:43;;;;;;;3.08;1.30;;;;;;;1.93;93.72;97342.75;5031591;28;20049;-79
2022/12/27 05:33:10;;;;;;;5.07;1.73;;;;;;;1.88;94.37;97337.28;5030939;28;20045;-78
2022/12/27 05:35:37;;;;;;;3.58;1.40;;;;;;;1.75;95.32;97349.94;5031407;28;20064;-79
2022/12/27 05:38:04;;;;;;;2.85;1.33;;;;;;;1.66;95.07;97350.53;5031257;28;20095;-78
2022/12/27 05:40:31;;;;;;;3.20;1.63;;;;;;;1.70;94.52;97360.56;5031882;28;20056;-77
2022/12/27 05:43:00;;;;;;;3.22;1.55;;;;;;;1.66;94.80;97367.47;5031967;28;20045;-78
2022/12/27 05:45:29;;;;;;;3.60;1.70;;;;;;;1.66;94.59;97363.97;5032745;28;20041;-77
2022/12/27 05:47:58;;;;;;;2.47;1.40;;;;;;;1.68;94.35;97364.56;5026175;28;20042;-78
2022/12/27 05:50:24;;;;;;;7.43;1.45;;;;;;;1.65;93.94;97371.19;5032198;28;20095;-77
2022/12/27 05:52:51;;;;;;;2.25;1.20;;;;;;;1.66;93.96;97372.81;5031942;28;20038;-78
2022/12/27 05:55:17;;;;;;;3.20;1.73;;;;;;;1.59;93.70;97369.47;5031482;28;20099;-77
2022/12/27 05:57:44;;;;;;;2.65;1.67;;;;;;;1.49;93.31;97371.91;5031626;28;20045;-77
2022/12/27 06:00:16;;;;;;;2.33;1.55;;;;;;;1.47;93.81;97374.03;5031387;28;20049;-77
2022/12/27 06:02:42;;;;;;;4.72;1.70;;;;;;;1.43;93.96;97378.25;5031659;28;20057;-78
2022/12/27 06:05:10;;;;;;;3.15;1.65;;;;;;;1.34;94.71;97379.63;5031372;28;20044;-78
2022/12/27 06:07:36;;;;;;;4.55;1.60;;;;;;;1.21;96.10;97381.50;5031909;28;20049;-77
2022/12/27 06:10:03;;;;;;;5.05;2.00;;;;;;;1.17;96.59;97385.69;5030371;28;20049;-79
2022/12/27 06:12:30;;;;;;;2.42;1.40;;;;;;;1.15;96.85;97389.66;5031180;28;20045;-80
2022/12/27 06:14:56;;;;;;;3.03;1.67;;;;;;;1.13;96.59;97386.41;5031338;28;20049;-78
2022/12/27 06:17:24;;;;;;;3.20;1.70;;;;;;;1.08;96.42;97384.41;5030711;28;20048;-78
2022/12/27 06:19:50;;;;;;;3.85;1.70;;;;;;;1.07;96.33;97396.19;5036102;28;20052;-78
2022/12/27 06:22:17;;;;;;;2.70;1.63;;;;;;;1.03;95.89;97386.97;5036799;28;20042;-78
2022/12/27 06:24:44;;;;;;;5.97;1.73;;;;;;;1.01;96.20;97391.75;5037289;28;20057;-78
2022/12/27 06:27:10;;;;;;;3.28;1.40;;;;;;;0.99;96.27;97391.16;5036767;28;20045;-78
2022/12/27 06:29:37;;;;;;;3.35;1.75;;;;;;;1.06;96.63;97397.25;5036977;28;20056;-78
2022/12/27 06:32:04;;;;;;;2.95;1.65;;;;;;;1.14;96.23;97391.50;5038283;28;20546;-77
2022/12/27 06:34:32;;;;;;;4.20;2.03;;;;;;;1.09;96.25;97394.09;5037685;28;20119;-78
2022/12/27 06:36:58;;;;;;;3.13;1.60;;;;;;;1.15;96.32;97409.28;5037576;28;20128;-79
2022/12/27 06:39:25;;;;;;;6.65;2.10;;;;;;;1.21;95.87;97394.94;5037787;28;20044;-78
2022/12/27 06:41:54;;;;;;;2.40;1.63;;;;;;;1.21;95.57;97402.16;5038185;28;20037;-78
2022/12/27 06:44:20;;;;;;;3.00;1.35;;;;;;;1.17;95.51;97401.78;5037645;28;20052;-79
2022/12/27 06:46:47;;;;;;;3.95;2.25;;;;;;;1.11;96.25;97401.91;5038673;28;20048;-78
2022/12/27 06:49:14;;;;;;;3.85;2.20;;;;;;;1.20;95.85;97401.34;5038968;28;20041;-78
2022/12/27 06:51:41;;;;;;;4.03;1.95;;;;;;;1.21;95.18;97396.78;5040781;28;20045;-78
2022/12/27 06:54:09;;;;;;;3.35;1.60;;;;;;;1.23;95.00;97403.53;5040200;28;20042;-76
2022/12/27 06:56:36;;;;;;;2.40;1.45;;;;;;;1.19;95.09;97399.69;5039343;28;20042;-78
2022/12/27 06:59:02;;;;;;;3.00;1.90;;;;;;;1.07;94.66;97406.91;5039997;28;20048;-77
2022/12/27 07:01:30;;;;;;;2.20;1.35;;;;;;;0.90;94.46;97390.69;5038614;28;20050;-79
2022/12/27 07:03:59;;;;;;;3.70;1.58;;;;;;;0.92;93.99;97398.50;5039937;28;20041;-79
2022/12/27 07:06:29;;;;;;;2.53;1.25;;;;;;;0.86;93.78;97400.25;5038909;28;20049;-78
2022/12/27 07:08:59;;;;;;;4.90;1.55;;;;;;;0.87;93.23;97412.59;5038518;28;20041;-77
2022/12/27 07:11:26;;;;;;;5.80;1.35;;;;;;;0.84;92.54;97420.31;5033708;28;20038;-80
2022/12/27 07:13:54;;;;;;;3.25;1.23;;;;;;;0.79;91.76;97415.63;5033587;28;20072;-79
2022/12/27 07:16:22;;;;;;;3.88;1.10;;;;;;;0.81;90.69;97413.53;5032900;28;20041;-79
2022/12/27 07:18:48;;;;;;;1.85;1.20;;;;;;;0.88;90.32;97413.41;5033363;28;20050;-78
2022/12/27 07:21:17;;;;;;;1.55;1.02;;;;;;;0.95;88.87;97425.69;5033061;28;20049;-78
2022/12/27 07:23:43;;;;;;;3.20;1.20;;;;;;;0.91;88.14;97419.13;5033650;28;20057;-78
2022/12/27 07:26:13;;;;;;;3.10;0.95;;;;;;;0.99;88.15;97423.34;5033328;28;20132;-78
2022/12/27 07:28:40;;;;;;;3.35;1.05;;;;;;;1.10;87.98;97429.75;5033023;28;20076;-78
2022/12/27 07:31:08;;;;;;;3.08;1.00;;;;;;;1.08;87.54;97430.00;5031931;28;20052;-77
2022/12/27 07:33:34;;;;;;;2.83;0.90;;;;;;;1.17;86.86;97433.19;5033277;28;20120;-78
2022/12/27 07:36:02;;;;;;;1.70;0.90;;;;;;;1.10;86.15;97433.28;5033037;28;20150;-77
2022/12/27 07:38:29;;;;;;;5.05;1.45;;;;;;;1.16;85.58;97432.38;5032102;28;20041;-77
2022/12/27 07:40:58;;;;;;;2.17;1.00;;;;;;;1.12;85.14;97439.22;5033094;28;20045;-77
2022/12/27 07:43:26;;;;;;;1.92;1.10;;;;;;;1.06;85.24;97437.47;5032321;28;20037;-77
2022/12/27 07:45:53;;;;;;;4.72;1.35;;;;;;;1.10;85.47;97437.81;5033336;28;20052;-77
2022/12/27 07:48:19;;;;;;;3.58;1.10;;;;;;;1.16;85.25;97437.72;5032225;28;20052;-77
2022/12/27 07:50:53;;;;;;;3.85;1.00;;;;;;;1.17;84.94;97434.00;5033940;28;20408;-78
2022/12/27 07:53:20;;;;;;;2.85;1.10;;;;;;;1.30;84.78;97444.53;5032577;28;20048;-78
2022/12/27 07:55:47;;;;;;;3.25;0.95;;;;;;;1.34;84.81;97446.72;5032731;28;20037;-78
2022/12/27 07:58:16;;;;;;;2.63;1.15;;;;;;;1.44;83.98;97445.09;5032570;28;20053;-78
2022/12/27 08:00:45;;;;;;;4.05;1.40;;;;;;;1.43;83.46;97438.09;5034888;28;20544;-78
2022/12/27 08:03:12;;;;;;;2.15;1.02;;;;;;;1.58;83.33;97436.81;5036327;28;20052;-79
2022/12/27 08:05:44;;;;;;;2.45;1.10;;;;;;;1.50;82.96;97443.34;5036031;28;20045;-78
2022/12/27 08:08:11;;;;;;;3.67;1.15;;;;;;;1.60;83.14;97448.13;5034422;28;20060;-78
2022/12/27 08:10:37;;;;;;;3.50;1.20;;;;;;;1.77;82.10;97444.50;5034060;28;20045;-78
2022/12/27 08:13:04;;;;;;;4.45;1.15;;;;;;;2.34;81.02;97438.44;5033418;28;20049;-78
2022/12/27 08:15:31;;;;;;;6.40;1.40;;;;;;;3.45;78.75;97437.97;5032243;28;20416;-78
2022/12/27 08:17:59;;;;;;;2.65;1.30;;;;;;;4.45;74.01;97437.72;5032927;28;20056;-78
2022/12/27 08:20:26;;;;;;;1.90;0.90;;;;;;;4.35;69.14;97443.00;5032676;28;20045;-78
2022/12/27 08:22:52;;;;;;;4.88;1.20;;;;;;;4.11;70.19;97446.97;5032680;28;20044;-78
2022/12/27 08:25:20;;;;;;;3.63;1.00;;;;;;;3.84;72.93;97453.09;5032475;28;20061;-77
2022/12/27 08:27:47;;;;;;;2.60;0.95;;;;;;;3.77;72.20;97449.78;5032174;28;20049;-77
2022/12/27 08:30:13;;;;;;;2.22;0.98;;;;;;;3.81;73.94;97448.22;5031408;28;20136;-78
2022/12/27 08:32:40;;;;;;;5.07;1.55;;;;;;;3.78;73.90;97448.69;5031665;28;20057;-77
2022/12/27 08:35:08;;;;;;;3.80;1.30;;;;;;;3.77;74.70;97457.84;5031826;28;20056;-77
2022/12/27 08:37:35;;;;;;;2.15;1.20;;;;;;;3.71;74.21;97461.53;5031542;28;20042;-76
2022/12/27 08:40:01;;;;;;;4.65;1.38;;;;;;;3.64;74.17;97464.38;5031532;28;20044;-78
2022/12/27 08:42:31;;;;;;;2.35;1.10;;;;;;;3.62;74.69;97471.91;5031094;28;20041;-78
2022/12/27 08:44:57;;;;;;;2.55;1.10;;;;;;;3.45;75.23;97467.59;5031601;28;20033;-78
2022/12/27 08:47:24;;;;;;;3.35;1.25;;;;;;;3.50;76.05;97473.03;5030583;28;20085;-78
2022/12/27 08:49:50;;;;;;;3.97;1.10;;;;;;;3.65;75.51;97467.88;5031174;28;20033;-78
2022/12/27 08:52:18;;;;;;;2.55;1.10;;;;;;;3.22;74.56;97465.84;5030764;28;20046;-78
2022/12/27 08:54:44;;;;;;;2.60;1.00;;;;;;;3.20;74.84;97465.28;5032877;28;20524;-77
2022/12/27 08:57:11;;;;;;;1.92;1.10;;;;;;;3.27;75.49;97463.25;5031867;28;20045;-77
2022/12/27 08:59:38;;;;;;;3.00;1.17;;;;;;;3.03;75.31;97478.75;5031585;28;20045;-78
2022/12/27 09:02:04;;;;;;;1.90;0.82;;;;;;;3.04;76.07;97485.75;5030802;28;20041;-78
2022/12/27 09:04:31;;;;;;;2.53;0.98;;;;;;;3.17;76.60;97490.81;5030975;28;20048;-78
2022/12/27 09:06:57;;;;;;;3.45;1.15;;;;;;;3.24;76.20;97486.09;5031080;28;20045;-78
2022/12/27 09:09:25;;;;;;;3.88;1.20;;;;;;;3.27;75.93;97480.22;5030059;28;20049;-77
2022/12/27 09:11:52;;;;;;;3.38;1.20;;;;;;;3.33;76.13;97487.31;5031249;28;20048;-78
2022/12/27 09:14:19;;;;;;;3.28;1.48;;;;;;;3.47;76.42;97487.00;5030214;28;20048;-78
2022/12/27 09:16:46;;;;;;;3.35;1.23;;;;;;;3.52;76.42;97484.41;5030653;28;20073;-78
2022/12/27 09:19:13;;;;;;;2.65;1.10;;;;;;;3.61;76.06;97491.00;5030452;28;20041;-78
2022/12/27 09:21:40;;;;;;;4.78;1.13;;;;;;;3.60;75.06;97489.34;5030184;28;20464;-78
2022/12/27 09:24:10;;;;;;;3.20;1.52;;;;;;;3.53;75.67;97488.72;5030395;28;20049;-77
2022/12/27 09:26:38;;;;;;;3.38;1.20;;;;;;;3.77;76.17;97489.38;5030228;28;20072;-77
2022/12/27 09:29:04;;;;;;;2.55;1.00;;;;;;;3.91;76.26;97491.47;5030152;28;20072;-75
2022/12/27 09:31:31;;;;;;;4.45;1.75;;;;;;;3.85;75.54;97492.44;5030498;28;20530;-77
2022/12/27 09:33:58;;;;;;;3.47;1.23;;;;;;;3.97;76.56;97491.53;5030639;28;20046;-78
2022/12/27 09:36:26;;;;;;;3.33;1.40;;;;;;;3.85;76.26;97492.44;5029965;28;20385;-77
2022/12/27 09:38:55;;;;;;;4.50;1.55;;;;;;;3.90;76.79;97489.81;5030942;28;20402;-78
2022/12/27 09:41:37;;;;;;;9.00;1.60;;;;;;;3.91;76.90;97488.78;5029955;28;20049;-77
2022/12/27 09:44:11;;;;;;;3.10;1.77;;;;;;;4.17;77.11;97478.34;5029681;28;20064;-78
2022/12/27 09:46:44;;;;;;;3.28;1.50;;;;;;;4.68;75.48;97478.97;5029679;28;20490;-77
2022/12/27 09:49:13;;;;;;;4.63;1.55;;;;;;;5.31;73.53;97482.84;5029664;28;20044;-78
2022/12/27 09:51:47;;;;;;;4.07;1.70;;;;;;;5.49;72.32;97484.38;5030111;28;20072;-77
2022/12/27 09:54:17;;;;;;;3.65;1.70;;;;;;;5.26;73.41;97488.19;5029604;28;20048;-78
2022/12/27 09:56:44;;;;;;;4.82;1.92;;;;;;;5.01;75.21;97486.06;5030054;28;20045;-77
2022/12/27 09:59:20;;;;;;;2.53;1.60;;;;;;;4.76;75.31;97486.63;5029818;28;20068;-78
2022/12/27 10:01:47;;;;;;;3.92;1.70;;;;;;;5.04;75.13;97482.06;5029589;28;20056;-78
2022/12/27 10:04:16;;;;;;;3.00;1.48;;;;;;;5.41;74.15;97474.84;5029237;28;20048;-80
2022/12/27 10:07:05;;;;;;;4.28;2.08;;;;;;;5.42;73.39;97478.34;5029590;28;20049;-77
2022/12/27 10:09:51;;;;;;;7.20;1.50;;;;;;;5.65;72.75;97477.19;5022663;28;20045;-78
2022/12/27 10:12:34;;;;;;;4.93;1.75;;;;;;;5.85;71.37;97481.94;5029312;28;20041;-77
2022/12/27 10:15:18;;;;;;;3.92;1.55;;;;;;;6.11;70.74;97474.81;5022785;28;20040;-78
2022/12/27 10:17:55;;;;;;;4.57;1.33;;;;;;;6.43;72.04;97462.00;5030234;28;20053;-78
2022/12/27 10:20:30;;;;;;;5.65;1.80;;;;;;;5.75;71.42;97467.28;5028746;28;20052;-79
2022/12/27 10:23:00;;;;;;;3.28;1.65;;;;;;;6.06;70.56;97462.09;5021628;28;20038;-77
2022/12/27 10:25:28;;;;;;;5.20;1.98;;;;;;;5.85;71.30;97465.72;5029739;28;20049;-80
2022/12/27 10:28:00;;;;;;;5.15;1.92;;;;;;;6.16;72.02;97461.31;5022699;28;20060;-78
2022/12/27 10:30:30;;;;;;;5.13;1.92;;;;;;;6.58;70.30;97461.28;5031003;28;20049;-79
2022/12/27 10:32:57;;;;;;;4.13;1.25;;;;;;;6.99;68.02;97466.78;5022800;28;20049;-77
2022/12/27 10:35:25;;;;;;;4.10;1.90;;;;;;;7.19;66.49;97461.41;5030123;28;20045;-77
2022/12/27 10:37:52;;;;;;;2.28;1.40;;;;;;;6.83;66.97;97457.81;5030444;28;20069;-77
2022/12/27 10:40:23;;;;;;;2.42;1.30;;;;;;;6.21;67.60;97453.22;5030182;28;20053;-81
2022/12/27 10:43:02;;;;;;;6.00;1.60;;;;;;;6.08;69.20;97448.31;5029208;28;20041;-77
2022/12/27 10:45:33;;;;;;;4.55;1.25;;;;;;;5.68;66.98;97455.84;5029034;28;20033;-77
2022/12/27 10:48:13;;;;;;;4.00;1.50;;;;;;;5.47;63.51;97445.97;5029541;28;20497;-77
2022/12/27 10:50:45;;;;;;;2.97;0.80;;;;;;;5.50;62.98;97448.97;5029278;28;20099;-77
2022/12/27 10:53:32;;;;;;;1.75;0.90;;;;;;;5.62;63.49;97448.78;5029986;28;20045;-80
2022/12/27 10:56:12;;;;;;;3.10;0.88;;;;;;;5.97;63.20;97450.97;5021989;28;20041;-77
2022/12/27 10:58:42;;;;;;;2.25;0.63;;;;;;;6.13;57.75;97451.03;5029016;28;20045;-77
2022/12/27 11:01:17;;;;;;;2.15;0.80;;;;;;;6.45;57.83;97462.56;5028510;28;20045;-78
2022/12/27 11:03:44;;;;;;;1.90;0.70;;;;;;;6.71;60.27;97462.66;5029496;28;20045;-77
2022/12/27 11:06:22;;;;;;;2.10;0.82;;;;;;;6.71;58.21;97454.53;5032288;28;20041;-79
2022/12/27 11:08:49;;;;;;;2.50;0.50;;;;;;;6.43;58.14;97451.19;5032453;28;20057;-76
2022/12/27 11:11:21;;;;;;;1.20;0.50;;;;;;;6.20;58.35;97443.50;5032435;28;20041;-78
2022/12/27 11:13:48;;;;;;;1.35;0.63;;;;;;;5.99;58.66;97442.56;5032735;28;20049;-77
2022/12/27 11:16:27;;;;;;;2.78;0.80;;;;;;;5.95;59.45;97439.59;5030809;28;20042;-77
2022/12/27 11:18:57;;;;;;;3.40;0.85;;;;;;;6.30;59.74;97440.84;5024889;28;20073;-78
2022/12/27 11:21:24;;;;;;;1.25;0.70;;;;;;;6.43;59.62;97440.38;5032646;28;20047;-77
2022/12/27 11:23:53;;;;;;;0.88;0.50;;;;;;;6.36;59.33;97439.78;5032242;28;20066;-77
2022/12/27 11:26:22;;;;;;;1.50;0.55;;;;;;;6.46;56.67;97444.44;5032335;28;20038;-78
2022/12/27 11:28:53;;;;;;;2.80;0.60;;;;;;;6.60;55.28;97433.94;5032434;28;20052;-77
2022/12/27 11:31:30;;;;;;;3.95;0.65;;;;;;;6.60;55.50;97434.75;5031927;28;20041;-77
2022/12/27 11:33:59;;;;;;;5.63;0.60;;;;;;;6.52;55.47;97436.09;5024553;28;20520;-76
2022/12/27 11:36:28;;;;;;;1.88;0.70;;;;;;;6.35;56.96;97440.88;5031724;28;20045;-77
2022/12/27 11:38:55;;;;;;;3.55;0.60;;;;;;;5.87;55.78;97434.63;5024549;28;20160;-79
2022/12/27 11:41:30;;;;;;;4.65;1.13;;;;;;;5.92;57.47;97434.69;5032041;28;20049;-77
2022/12/27 11:44:01;;;;;;;1.65;0.70;;;;;;;5.85;57.18;97428.69;5032363;28;20048;-78
2022/12/27 11:46:37;;;;;;;1.55;0.85;;;;;;;6.07;57.48;97427.75;5031947;28;20056;-78
2022/12/27 11:49:06;;;;;;;2.80;0.55;;;;;;;5.98;57.61;97432.84;5031854;28;20038;-79
2022/12/27 11:51:54;;;;;;;1.02;0.60;;;;;;;5.81;59.42;97433.00;5031992;28;20067;-79
2022/12/27 11:54:45;;;;;;;3.25;0.90;;;;;;;5.84;58.41;97432.44;5031338;28;20052;-79
2022/12/27 11:57:26;;;;;;;1.58;0.60;;;;;;;5.84;57.49;97421.63;5025731;28;20041;-79
2022/12/27 12:00:02;;;;;;;1.55;0.50;;;;;;;5.75;58.15;97424.03;5023912;28;20038;-79
2022/12/27 12:02:47;;;;;;;0.73;0.50;;;;;;;5.72;56.62;97412.91;5030915;28;20057;-80
2022/12/27 12:05:42;;;;;;;3.67;0.52;;;;;;;5.83;57.74;97409.19;5031332;28;20040;-78
2022/12/27 12:08:53;;;;;;;1.13;0.40;;;;;;;6.12;58.02;97416.97;5024691;28;20488;-77
2022/12/27 12:11:35;;;;;;;1.52;0.50;;;;;;;5.95;55.50;97409.03;4968602;28;20054;-79
2022/12/27 12:14:30;;;;;;;2.67;0.60;;;;;;;6.01;57.15;97403.41;5031626;28;20448;-78
2022/12/27 12:17:15;;;;;;;3.67;0.57;;;;;;;5.86;59.88;97400.59;5007497;28;20096;-79
2022/12/27 12:20:11;;;;;;;1.05;0.52;;;;;;;5.85;56.73;97407.06;5011410;28;20040;-77
2022/12/27 12:22:54;;;;;;;3.83;0.70;;;;;;;5.64;55.51;97402.63;5010740;28;20693;-79
2022/12/27 12:26:05;;;;;;;1.70;0.60;;;;;;;5.46;57.02;97399.25;5011662;28;20413;-78
2022/12/27 12:29:04;;;;;;;2.55;0.60;;;;;;;5.49;59.22;97398.72;5012253;28;20042;-79
2022/12/27 12:32:09;;;;;;;5.07;0.60;;;;;;;5.42;56.91;97392.72;5025910;28;20038;-79
2022/12/27 12:34:57;;;;;;;2.00;0.60;;;;;;;5.36;56.95;97392.94;5013070;28;20044;-77
2022/12/27 12:37:39;;;;;;;1.70;0.65;;;;;;;5.41;59.70;97388.41;5028416;28;20408;-79
2022/12/27 12:40:31;;;;;;;4.80;0.50;;;;;;;5.30;57.86;97392.09;5031029;28;20477;-80
2022/12/27 12:43:12;;;;;;;1.25;0.47;;;;;;;5.35;58.02;97394.84;5024594;28;20363;-78
2022/12/27 12:45:51;;;;;;;2.40;0.50;;;;;;;5.41;59.53;97395.69;5032918;28;20503;-78
2022/12/27 12:48:38;;;;;;;1.83;0.50;;;;;;;5.38;59.62;97391.63;5033830;28;20589;-76
2022/12/27 12:51:20;;;;;;;4.07;0.68;;;;;;;5.44;59.27;97379.78;5024210;28;20037;-77
2022/12/27 12:54:11;;;;;;;1.58;0.40;;;;;;;5.46;60.33;97383.03;5030892;28;20046;-78
2022/12/27 12:56:55;;;;;;;2.35;0.52;;;;;;;5.35;59.90;97383.22;5024030;28;20038;-78
2022/12/27 12:59:50;;;;;;;2.38;0.60;;;;;;;5.30;60.67;97378.59;5013488;28;20045;-79
2022/12/27 13:02:37;;;;;;;4.50;0.70;;;;;;;5.35;60.54;97383.22;5007684;28;20041;-78
2022/12/27 13:05:13;;;;;;;4.28;0.50;;;;;;;5.32;59.76;97376.44;5014915;28;20048;-79
2022/12/27 13:07:56;;;;;;;3.70;0.77;;;;;;;5.32;59.56;97378.31;5011157;28;20057;-79
2022/12/27 13:11:04;;;;;;;2.03;0.47;;;;;;;5.35;59.30;97367.84;5009174;28;20054;-79
2022/12/27 13:13:44;;;;;;;1.42;0.50;;;;;;;5.38;59.89;97369.22;5017364;28;20042;-78
2022/12/27 13:16:23;;;;;;;2.47;0.68;;;;;;;5.33;59.33;97378.09;5016947;28;20406;-78
2022/12/27 13:19:02;;;;;;;3.65;0.70;;;;;;;5.34;59.19;97368.09;5012295;28;20050;-78
2022/12/27 13:21:52;;;;;;;2.55;0.70;;;;;;;5.32;59.68;97373.75;5017513;28;20085;-77
2022/12/27 13:24:28;;;;;;;3.65;0.70;;;;;;;5.39;59.59;97368.94;5010726;28;20528;-77
2022/12/27 13:27:02;;;;;;;1.23;0.70;;;;;;;5.33;59.85;97364.59;5005392;28;20046;-78
2022/12/27 13:29:50;;;;;;;1.45;0.65;;;;;;;5.40;61.03;97367.06;5036805;28;20041;-79
2022/12/27 13:32:31;;;;;;;4.00;0.70;;;;;;;5.27;60.59;97362.91;5023225;28;20482;-79
2022/12/27 13:35:17;;;;;;;3.03;0.60;;;;;;;5.46;61.09;97356.00;5025217;28;20049;-79
2022/12/27 13:37:54;;;;;;;2.63;0.50;;;;;;;5.59;61.87;97353.94;5016388;28;20053;-78
2022/12/27 13:40:44;;;;;;;2.10;0.75;;;;;;;5.42;61.31;97351.38;5033710;28;20072;-78
2022/12/27 13:43:45;;;;;;;2.55;0.70;;;;;;;5.36;60.95;97355.13;5027052;28;20103;-79
2022/12/27 13:46:39;;;;;;;1.15;0.60;;;;;;;5.57;61.74;97346.09;5024402;28;20064;-77
2022/12/27 13:49:27;;;;;;;2.60;0.50;;;;;;;5.60;60.92;97350.97;5024807;28;20049;-78